createdAt,value
2017-08-31T00:00:39.433Z,9.33
2017-08-31T00:03:07.434Z,8.60
2017-08-31T00:05:35.201Z,10.17
2017-08-31T00:08:02.910Z,9.73
2017-08-31T00:10:30.695Z,9.47
2017-08-31T00:12:58.445Z,9.60
2017-08-31T00:15:26.216Z,9.57
2017-08-31T00:17:54.022Z,10.07
2017-08-31T00:20:21.802Z,9.90
2017-08-31T00:22:49.492Z,10.27
2017-08-31T00:25:17.313Z,9.33
2017-08-31T00:27:45.113Z,9.83
2017-08-31T00:30:13.741Z,10.43
2017-08-31T00:32:41.487Z,9.80
2017-08-31T00:35:09.254Z,10.47
2017-08-31T00:37:37.083Z,10.40
2017-08-31T00:40:04.849Z,10.40
2017-08-31T00:42:32.665Z,9.77
2017-08-31T00:45:00.433Z,10.17
2017-08-31T00:47:28.223Z,8.80
2017-08-31T00:49:56.158Z,8.93
2017-08-31T00:52:23.952Z,9.87
2017-08-31T00:54:51.739Z,10.70
2017-08-31T00:57:19.490Z,10.10
2017-08-31T00:59:47.197Z,11.40
2017-08-31T01:02:15.939Z,10.23
2017-08-31T01:04:43.721Z,9.83
2017-08-31T01:07:11.475Z,9.37
2017-08-31T01:09:39.240Z,10.80
2017-08-31T01:12:07.022Z,10.50
2017-08-31T01:14:34.711Z,11.60
2017-08-31T01:17:02.492Z,10.43
2017-08-31T01:19:30.254Z,11.30
2017-08-31T01:21:57.980Z,10.07
2017-08-31T01:24:25.815Z,10.60
2017-08-31T01:26:53.662Z,10.13
2017-08-31T01:29:21.441Z,10.17
2017-08-31T01:31:50.045Z,9.30
2017-08-31T01:34:17.852Z,9.13
2017-08-31T01:36:45.584Z,9.80
2017-08-31T01:39:13.385Z,8.93
2017-08-31T01:41:41.173Z,9.50
2017-08-31T01:44:08.915Z,9.90
2017-08-31T01:46:36.784Z,10.93
2017-08-31T01:49:04.773Z,9.93
2017-08-31T01:51:32.571Z,10.00
2017-08-31T01:54:01.151Z,9.73
2017-08-31T01:56:28.884Z,10.13
2017-08-31T01:58:56.688Z,10.00
2017-08-31T02:01:24.427Z,9.80
2017-08-31T02:03:52.143Z,9.50
2017-08-31T02:06:19.956Z,9.53
2017-08-31T02:08:47.721Z,10.27
2017-08-31T02:11:15.456Z,9.57
2017-08-31T02:13:43.242Z,10.33
2017-08-31T02:16:11.027Z,10.67
2017-08-31T02:18:38.717Z,10.90
2017-08-31T02:21:06.501Z,9.57
2017-08-31T02:23:34.234Z,9.17
2017-08-31T02:26:02.033Z,9.00
2017-08-31T02:28:29.733Z,10.20
2017-08-31T02:30:57.518Z,9.20
2017-08-31T02:33:25.304Z,10.00
2017-08-31T02:35:53.075Z,10.43
2017-08-31T02:38:20.779Z,10.70
2017-08-31T02:40:48.486Z,10.40
2017-08-31T02:43:16.236Z,9.20
2017-08-31T02:45:43.934Z,10.03
2017-08-31T02:48:11.673Z,9.57
2017-08-31T02:50:39.459Z,9.80
2017-08-31T02:53:07.175Z,10.07
2017-08-31T02:55:34.954Z,10.73
2017-08-31T02:58:02.663Z,9.33
2017-08-31T03:00:30.438Z,9.80
2017-08-31T03:02:58.215Z,10.10
2017-08-31T03:05:25.961Z,9.50
2017-08-31T03:07:54.363Z,9.33
2017-08-31T03:10:22.060Z,9.80
2017-08-31T03:12:49.834Z,9.33
2017-08-31T03:15:17.583Z,9.50
2017-08-31T03:17:45.339Z,8.87
2017-08-31T03:20:13.137Z,10.40
2017-08-31T03:22:41.108Z,8.27
2017-08-31T03:25:08.842Z,8.70
2017-08-31T03:27:36.552Z,9.20
2017-08-31T03:30:04.390Z,12.13
2017-08-31T03:32:32.138Z,11.50
2017-08-31T03:34:59.896Z,9.37
2017-08-31T03:37:27.604Z,11.47
2017-08-31T03:39:55.386Z,10.13
2017-08-31T03:42:23.124Z,9.93
2017-08-31T03:44:50.917Z,9.83
2017-08-31T03:47:18.728Z,8.90
2017-08-31T03:49:46.481Z,9.83
2017-08-31T03:52:14.332Z,9.77
2017-08-31T03:54:42.032Z,9.63
2017-08-31T03:57:09.793Z,10.27
2017-08-31T03:59:37.592Z,10.03
2017-08-31T04:02:05.470Z,9.53
2017-08-31T04:04:33.216Z,10.47
2017-08-31T04:07:00.907Z,9.70
2017-08-31T04:09:28.602Z,11.27
2017-08-31T04:11:56.407Z,9.93
2017-08-31T04:14:24.125Z,9.23
2017-08-31T04:16:51.874Z,10.00
2017-08-31T04:19:19.568Z,10.10
2017-08-31T04:21:47.321Z,11.20
2017-08-31T04:24:15.054Z,10.47
2017-08-31T04:26:42.773Z,9.23
2017-08-31T04:29:10.547Z,10.27
2017-08-31T04:31:38.346Z,12.40
2017-08-31T04:34:06.107Z,10.27
2017-08-31T04:36:33.804Z,10.50
2017-08-31T04:39:01.780Z,10.10
2017-08-31T04:41:29.996Z,11.33
2017-08-31T04:43:57.724Z,14.43
2017-08-31T04:46:25.569Z,11.73
2017-08-31T04:48:53.394Z,13.10
2017-08-31T04:51:21.249Z,12.23
2017-08-31T04:53:49.015Z,13.60
2017-08-31T04:56:16.726Z,10.43
2017-08-31T04:58:44.530Z,10.83
2017-08-31T05:01:12.355Z,10.50
2017-08-31T05:03:40.149Z,11.23
2017-08-31T05:06:07.929Z,10.23
2017-08-31T05:08:35.759Z,12.23
2017-08-31T05:11:03.538Z,10.67
2017-08-31T05:13:31.294Z,10.17
2017-08-31T05:15:59.169Z,11.20
2017-08-31T05:18:26.947Z,10.10
2017-08-31T05:20:54.803Z,9.77
2017-08-31T05:23:22.599Z,10.00
2017-08-31T05:25:50.431Z,9.97
2017-08-31T05:28:18.286Z,9.30
2017-08-31T05:30:46.097Z,9.57
2017-08-31T05:33:15.014Z,9.80
2017-08-31T05:35:42.891Z,9.87
2017-08-31T05:38:10.737Z,9.43
2017-08-31T05:40:38.560Z,10.17
2017-08-31T05:43:06.508Z,9.60
2017-08-31T05:45:34.460Z,8.60
2017-08-31T05:48:02.318Z,10.43
2017-08-31T05:50:35.313Z,10.30
2017-08-31T05:53:03.162Z,9.47
2017-08-31T05:55:30.979Z,8.90
2017-08-31T05:57:58.809Z,9.37
2017-08-31T06:00:26.725Z,10.67
2017-08-31T06:02:54.608Z,9.70
2017-08-31T06:05:22.438Z,12.10
2017-08-31T06:07:50.259Z,10.80
2017-08-31T06:10:18.098Z,10.63
2017-08-31T06:12:45.843Z,10.63
2017-08-31T06:15:13.696Z,10.20
2017-08-31T06:17:41.465Z,13.20
2017-08-31T06:20:09.376Z,12.67
2017-08-31T06:22:37.088Z,12.20
2017-08-31T06:25:04.968Z,12.67
2017-08-31T06:27:32.736Z,11.47
2017-08-31T06:30:00.438Z,10.60
2017-08-31T06:32:28.238Z,12.07
2017-08-31T06:34:56.028Z,12.40
2017-08-31T06:37:23.748Z,11.47
2017-08-31T06:39:51.527Z,11.00
2017-08-31T06:42:19.274Z,11.07
2017-08-31T06:44:46.973Z,10.30
2017-08-31T06:47:14.744Z,10.30
2017-08-31T06:49:42.461Z,11.40
2017-08-31T06:52:10.184Z,12.23
2017-08-31T06:54:37.948Z,9.40
2017-08-31T06:57:05.664Z,11.03
2017-08-31T06:59:33.418Z,11.37
2017-08-31T07:02:01.117Z,10.60
2017-08-31T07:04:28.814Z,11.30
2017-08-31T07:06:57.708Z,10.50
2017-08-31T07:09:25.479Z,11.87
2017-08-31T07:11:53.304Z,12.03
2017-08-31T07:14:21.056Z,11.60
2017-08-31T07:16:48.838Z,11.00
2017-08-31T07:19:16.618Z,11.63
2017-08-31T07:21:44.383Z,10.63
2017-08-31T07:24:12.107Z,10.47
2017-08-31T07:26:39.911Z,11.33
2017-08-31T07:29:07.718Z,10.23
2017-08-31T07:31:35.401Z,10.03
2017-08-31T07:34:03.511Z,11.00
2017-08-31T07:36:31.219Z,11.33
2017-08-31T07:38:59.002Z,11.10
2017-08-31T07:41:26.889Z,9.70
2017-08-31T07:43:54.593Z,10.57
2017-08-31T07:46:22.434Z,9.90
2017-08-31T07:48:50.169Z,10.07
2017-08-31T07:51:17.933Z,11.03
2017-08-31T07:53:45.703Z,11.80
2017-08-31T07:56:13.470Z,10.40
2017-08-31T07:58:41.286Z,12.40
2017-08-31T08:01:08.986Z,11.73
2017-08-31T08:03:36.804Z,12.17
2017-08-31T08:06:04.571Z,11.80
2017-08-31T08:08:32.290Z,10.60
2017-08-31T08:11:00.068Z,12.17
2017-08-31T08:13:27.771Z,12.93
2017-08-31T08:15:55.976Z,11.77
2017-08-31T08:18:23.736Z,12.80
2017-08-31T08:20:51.450Z,12.67
2017-08-31T08:23:19.229Z,11.67
2017-08-31T08:25:47.017Z,11.33
2017-08-31T08:28:14.774Z,11.00
2017-08-31T08:30:42.572Z,11.00
2017-08-31T08:33:10.270Z,11.20
2017-08-31T08:35:37.997Z,11.40
2017-08-31T08:38:05.858Z,10.00
2017-08-31T08:40:33.611Z,11.73
2017-08-31T08:43:01.379Z,10.80
2017-08-31T08:45:29.183Z,10.97
2017-08-31T08:47:57.007Z,10.33
2017-08-31T08:50:24.808Z,11.23
2017-08-31T08:52:52.612Z,11.53
2017-08-31T08:55:20.353Z,10.20
2017-08-31T08:57:48.142Z,12.43
2017-08-31T09:00:15.958Z,12.37
2017-08-31T09:02:43.661Z,11.10
2017-08-31T09:05:11.446Z,12.73
2017-08-31T09:07:39.193Z,11.43
2017-08-31T09:10:06.888Z,10.00
2017-08-31T09:12:34.663Z,11.47
2017-08-31T09:15:02.491Z,10.57
2017-08-31T09:17:30.172Z,11.13
2017-08-31T09:19:57.981Z,10.50
2017-08-31T09:22:25.789Z,11.17
2017-08-31T09:24:53.966Z,11.50
2017-08-31T09:27:21.814Z,11.23
2017-08-31T09:29:49.630Z,12.03
2017-08-31T09:32:17.367Z,11.37
2017-08-31T09:34:45.205Z,11.17
2017-08-31T09:37:12.981Z,10.53
2017-08-31T09:39:40.749Z,10.83
2017-08-31T09:42:08.496Z,10.37
2017-08-31T09:44:36.171Z,9.77
2017-08-31T09:47:03.960Z,9.17
2017-08-31T09:49:31.792Z,9.50
2017-08-31T09:51:59.506Z,9.77
2017-08-31T09:54:27.393Z,9.27
2017-08-31T09:56:55.347Z,9.30
2017-08-31T09:59:23.961Z,9.83
2017-08-31T10:01:51.676Z,8.60
2017-08-31T10:04:19.501Z,10.33
2017-08-31T10:06:47.264Z,8.83
2017-08-31T10:09:15.063Z,9.90
2017-08-31T10:11:42.787Z,9.73
2017-08-31T10:14:10.686Z,9.63
2017-08-31T10:16:38.480Z,8.83
2017-08-31T10:19:06.256Z,9.63
2017-08-31T10:21:33.973Z,9.10
2017-08-31T10:24:01.827Z,8.80
2017-08-31T10:26:29.599Z,9.67
2017-08-31T10:28:57.375Z,9.70
2017-08-31T10:31:25.279Z,7.60
2017-08-31T10:33:53.129Z,7.83
2017-08-31T10:36:20.942Z,8.50
2017-08-31T10:38:48.912Z,9.30
2017-08-31T10:41:16.737Z,9.67
2017-08-31T10:43:44.634Z,9.50
2017-08-31T10:46:12.375Z,8.60
2017-08-31T10:48:40.324Z,9.00
2017-08-31T10:51:08.154Z,8.67
2017-08-31T10:53:35.983Z,10.07
2017-08-31T10:56:03.973Z,9.70
2017-08-31T10:58:31.977Z,9.80
2017-08-31T11:00:59.855Z,6.63
2017-08-31T11:03:27.730Z,7.40
2017-08-31T11:05:55.501Z,8.50
2017-08-31T11:08:23.435Z,8.33
2017-08-31T11:10:51.249Z,7.13
2017-08-31T11:13:19.147Z,7.20
2017-08-31T11:15:46.954Z,7.27
2017-08-31T11:18:14.807Z,6.80
2017-08-31T11:20:42.632Z,6.50
2017-08-31T11:23:10.486Z,7.03
2017-08-31T11:25:38.332Z,7.57
2017-08-31T11:28:06.229Z,8.10
2017-08-31T11:30:34.141Z,7.50
2017-08-31T11:33:02.003Z,6.73
2017-08-31T11:35:29.857Z,6.87
2017-08-31T11:37:57.827Z,7.87
2017-08-31T11:40:25.606Z,7.47
2017-08-31T11:42:53.299Z,6.70
2017-08-31T11:45:21.099Z,6.87
2017-08-31T11:47:48.862Z,7.30
2017-08-31T11:50:16.601Z,6.90
2017-08-31T11:52:44.430Z,6.27
2017-08-31T11:55:12.256Z,6.63
2017-08-31T11:57:40.045Z,6.60
2017-08-31T12:00:07.815Z,5.50
2017-08-31T12:02:35.562Z,8.60
2017-08-31T12:05:04.282Z,6.70
2017-08-31T12:07:33.135Z,5.73
2017-08-31T12:10:01.150Z,6.73
2017-08-31T12:12:29.358Z,6.90
2017-08-31T12:14:57.121Z,6.77
2017-08-31T12:17:25.872Z,7.50
2017-08-31T12:19:54.353Z,6.60
2017-08-31T12:22:22.070Z,7.20
2017-08-31T12:24:49.837Z,6.57
2017-08-31T12:27:17.573Z,6.87
2017-08-31T12:29:45.405Z,6.17
2017-08-31T12:32:15.411Z,6.57
2017-08-31T12:34:43.100Z,6.70
2017-08-31T12:37:12.051Z,6.40
2017-08-31T12:39:39.801Z,5.50
2017-08-31T12:42:07.671Z,5.73
2017-08-31T12:44:36.573Z,5.77
2017-08-31T12:47:04.352Z,7.33
2017-08-31T12:49:32.153Z,6.23
2017-08-31T12:51:59.910Z,7.03
2017-08-31T12:54:27.688Z,6.00
2017-08-31T12:56:55.473Z,6.90
2017-08-31T12:59:24.186Z,6.83
2017-08-31T13:01:52.275Z,6.33
2017-08-31T13:04:20.003Z,6.50
2017-08-31T13:06:47.837Z,6.13
2017-08-31T13:09:15.617Z,4.63
2017-08-31T13:11:43.472Z,7.20
2017-08-31T13:14:11.182Z,5.73
2017-08-31T13:16:38.974Z,6.30
2017-08-31T13:19:06.668Z,6.97
2017-08-31T13:21:34.430Z,7.47
2017-08-31T13:24:02.204Z,7.30
2017-08-31T13:26:29.955Z,6.70
2017-08-31T13:28:57.836Z,6.57
2017-08-31T13:31:25.610Z,6.10
2017-08-31T13:33:53.599Z,7.10
2017-08-31T13:36:21.347Z,7.10
2017-08-31T13:38:49.101Z,6.50
2017-08-31T13:41:17.298Z,6.50
2017-08-31T13:43:45.059Z,7.90
2017-08-31T13:46:13.141Z,6.10
2017-08-31T13:48:40.896Z,7.27
2017-08-31T13:51:08.667Z,8.23
2017-08-31T13:53:36.388Z,8.40
2017-08-31T13:56:04.181Z,7.03
2017-08-31T13:58:31.972Z,8.90
2017-08-31T14:00:59.918Z,7.37
2017-08-31T14:03:27.878Z,7.27
2017-08-31T14:05:55.585Z,8.23
2017-08-31T14:08:23.346Z,6.87
2017-08-31T14:10:51.224Z,7.77
2017-08-31T14:13:18.990Z,6.53
2017-08-31T14:15:46.787Z,8.20
2017-08-31T14:18:14.492Z,8.00
2017-08-31T14:20:43.219Z,8.20
2017-08-31T14:23:10.971Z,6.80
2017-08-31T14:25:39.862Z,8.83
2017-08-31T14:28:07.603Z,9.47
2017-08-31T14:30:36.390Z,9.03
2017-08-31T14:33:04.164Z,8.00
2017-08-31T14:35:32.135Z,7.53
2017-08-31T14:37:59.897Z,7.13
2017-08-31T14:40:28.492Z,3.53
2017-08-31T14:42:56.277Z,2.40
2017-08-31T14:45:24.125Z,1.97
2017-08-31T14:47:51.891Z,1.50
2017-08-31T14:50:19.763Z,1.63
2017-08-31T14:52:47.777Z,1.50
2017-08-31T14:55:15.574Z,1.33
2017-08-31T14:57:43.398Z,1.70
2017-08-31T15:00:11.190Z,1.93
2017-08-31T15:02:38.931Z,2.10
2017-08-31T15:05:06.720Z,1.77
2017-08-31T15:07:34.405Z,2.07
2017-08-31T15:10:02.242Z,2.10
2017-08-31T15:12:29.987Z,2.77
2017-08-31T15:14:57.779Z,2.93
2017-08-31T15:17:26.554Z,5.20
2017-08-31T15:19:56.690Z,5.40
2017-08-31T15:22:24.557Z,5.20
2017-08-31T15:24:52.330Z,3.70
2017-08-31T15:27:20.173Z,3.47
2017-08-31T15:29:48.082Z,3.97
2017-08-31T15:32:15.822Z,3.23
2017-08-31T15:34:44.273Z,3.17
2017-08-31T15:37:12.750Z,3.40
2017-08-31T15:39:40.471Z,2.97
2017-08-31T15:42:08.249Z,3.03
2017-08-31T15:44:35.976Z,3.50
2017-08-31T15:47:03.721Z,3.43
2017-08-31T15:49:31.477Z,3.03
2017-08-31T15:51:59.278Z,4.17
2017-08-31T15:54:27.041Z,3.70
2017-08-31T15:56:54.710Z,4.87
2017-08-31T15:59:22.477Z,4.53
2017-08-31T16:01:50.265Z,5.73
2017-08-31T16:04:18.114Z,5.27
2017-08-31T16:06:45.949Z,4.73
2017-08-31T16:09:13.762Z,5.40
2017-08-31T16:11:41.527Z,5.00
2017-08-31T16:14:09.478Z,5.77
2017-08-31T16:16:37.281Z,4.80
2017-08-31T16:19:05.033Z,5.20
2017-08-31T16:21:32.894Z,4.50
2017-08-31T16:24:00.679Z,4.40
2017-08-31T16:26:28.426Z,5.00
2017-08-31T16:28:56.135Z,4.83
2017-08-31T16:31:23.932Z,5.00
2017-08-31T16:33:52.986Z,4.60
2017-08-31T16:36:20.712Z,4.87
2017-08-31T16:38:48.559Z,5.03
2017-08-31T16:41:16.301Z,5.17
2017-08-31T16:43:44.033Z,4.77
2017-08-31T16:46:12.638Z,6.80
2017-08-31T16:48:40.381Z,5.73
2017-08-31T16:51:08.446Z,5.90
2017-08-31T16:53:36.202Z,6.40
2017-08-31T16:56:04.140Z,6.50
2017-08-31T16:58:31.855Z,7.10
2017-08-31T17:00:59.716Z,5.77
2017-08-31T17:03:27.644Z,5.77
2017-08-31T17:05:56.166Z,6.33
2017-08-31T17:08:23.964Z,5.70
2017-08-31T17:10:51.687Z,5.50
2017-08-31T17:13:19.431Z,5.30
2017-08-31T17:15:47.965Z,5.53
2017-08-31T17:18:15.740Z,5.17
2017-08-31T17:20:43.455Z,6.10
2017-08-31T17:23:11.309Z,5.60
2017-08-31T17:25:39.164Z,6.20
2017-08-31T17:28:06.897Z,5.33
2017-08-31T17:30:34.662Z,3.03
2017-08-31T17:33:03.534Z,3.00
2017-08-31T17:35:31.377Z,3.07
2017-08-31T17:37:59.091Z,2.77
2017-08-31T17:40:26.835Z,4.17
2017-08-31T17:42:54.614Z,3.90
2017-08-31T17:45:22.606Z,4.53
2017-08-31T17:47:50.307Z,2.80
2017-08-31T17:50:18.144Z,1.37
2017-08-31T17:52:45.914Z,1.53
2017-08-31T17:55:13.689Z,1.97
2017-08-31T17:57:41.441Z,1.53
2017-08-31T18:00:09.213Z,1.90
2017-08-31T18:02:37.290Z,1.83
2017-08-31T18:05:05.581Z,2.07
2017-08-31T18:07:33.386Z,2.87
2017-08-31T18:10:01.164Z,2.60
2017-08-31T18:12:30.076Z,2.60
2017-08-31T18:14:58.056Z,2.83
2017-08-31T18:17:25.879Z,2.90
2017-08-31T18:19:53.612Z,2.90
2017-08-31T18:22:21.766Z,3.10
2017-08-31T18:24:49.640Z,2.40
2017-08-31T18:27:17.603Z,2.33
2017-08-31T18:29:45.380Z,2.40
2017-08-31T18:32:13.843Z,3.03
2017-08-31T18:34:41.628Z,2.53
2017-08-31T18:37:09.819Z,2.20
2017-08-31T18:39:38.229Z,3.00
2017-08-31T18:42:06.637Z,3.33
2017-08-31T18:44:35.783Z,3.00
2017-08-31T18:47:03.583Z,3.20
2017-08-31T18:49:31.562Z,2.87
2017-08-31T18:52:01.416Z,2.60
2017-08-31T18:54:30.213Z,2.10
2017-08-31T18:56:58.224Z,1.77
2017-08-31T18:59:27.091Z,1.67
2017-08-31T19:01:56.213Z,1.43
2017-08-31T19:04:24.714Z,1.53
2017-08-31T19:06:52.801Z,1.20
2017-08-31T19:09:21.562Z,1.63
2017-08-31T19:11:49.597Z,1.60
2017-08-31T19:14:17.379Z,2.00
2017-08-31T19:16:45.259Z,2.03
2017-08-31T19:19:13.059Z,1.60
2017-08-31T19:21:41.126Z,1.20
2017-08-31T19:24:08.882Z,1.50
2017-08-31T19:26:36.832Z,1.40
2017-08-31T19:29:04.726Z,1.07
2017-08-31T19:31:32.601Z,1.20
2017-08-31T19:34:00.401Z,1.47
2017-08-31T19:36:28.329Z,1.80
2017-08-31T19:38:57.361Z,0.90
2017-08-31T19:41:25.211Z,0.80
2017-08-31T19:43:53.058Z,0.40
2017-08-31T19:46:20.997Z,0.70
2017-08-31T19:48:49.216Z,0.50
2017-08-31T19:51:17.053Z,0.80
2017-08-31T19:53:44.869Z,0.80
2017-08-31T19:56:12.660Z,0.90
2017-08-31T19:58:40.472Z,0.70
2017-08-31T20:01:08.314Z,0.60
2017-08-31T20:03:36.031Z,0.50
2017-08-31T20:06:03.826Z,1.00
2017-08-31T20:08:31.648Z,0.80
2017-08-31T20:10:59.458Z,0.60
2017-08-31T20:13:27.246Z,0.50
2017-08-31T20:15:55.020Z,0.97
2017-08-31T20:18:22.776Z,0.60
2017-08-31T20:48:16.796Z,0.60
2017-08-31T20:50:44.521Z,0.60
2017-08-31T20:53:12.331Z,0.80
2017-08-31T20:55:40.914Z,0.70
2017-08-31T21:05:02.509Z,0.70
2017-08-31T21:07:30.239Z,1.00
2017-08-31T21:09:58.058Z,0.80
2017-08-31T21:12:25.881Z,1.23
2017-08-31T21:14:53.697Z,0.60
2017-08-31T21:17:21.462Z,0.60
2017-08-31T21:19:49.170Z,0.60
2017-08-31T21:22:16.960Z,0.53
2017-08-31T21:24:44.670Z,0.90
2017-08-31T21:27:12.458Z,1.20
2017-08-31T21:29:40.200Z,0.77
2017-08-31T21:45:00.487Z,0.60
2017-08-31T21:47:28.187Z,0.73
2017-08-31T21:49:55.889Z,0.87
2017-08-31T21:52:23.669Z,0.60
2017-08-31T21:54:51.357Z,0.87
2017-08-31T21:57:19.058Z,1.03
2017-08-31T21:59:46.801Z,1.30
2017-08-31T22:02:14.581Z,1.90
2017-08-31T22:04:42.302Z,1.20
2017-08-31T22:07:10.052Z,1.27
2017-08-31T22:09:37.785Z,0.83
2017-08-31T22:25:05.323Z,1.13
2017-08-31T22:35:02.385Z,1.20
2017-08-31T22:37:30.109Z,0.80
2017-08-31T22:39:58.677Z,0.90
2017-08-31T22:45:10.264Z,0.80
2017-08-31T22:47:38.010Z,0.77
2017-08-31T22:50:05.735Z,1.20
2017-08-31T23:05:04.101Z,0.90
2017-08-31T23:07:31.798Z,1.20
2017-08-31T23:09:59.538Z,1.00
2017-08-31T23:12:27.359Z,0.77
2017-08-31T23:14:55.086Z,1.20
2017-08-31T23:17:22.861Z,1.57
2017-08-31T23:25:02.290Z,0.90
2017-08-31T23:27:30.720Z,0.80
2017-08-31T23:29:58.427Z,1.07
2017-08-31T23:32:26.191Z,0.90
2017-08-31T23:34:53.881Z,1.90
2017-08-31T23:37:22.086Z,0.83
2017-08-31T23:39:49.806Z,0.83
2017-08-31T23:42:17.581Z,0.63
2017-08-31T23:55:03.125Z,1.03
2017-08-31T23:57:31.086Z,1.87
2017-08-31T23:59:58.781Z,1.00
